Time;durP1;ratioP1;P1;durP2;ratioP2;P2;SDS_P1;SDS_P2;PMS_P1;PMS_P2;Temp;Humidity;BMP_temperature;BMP_pressure;BME280_temperature;BME280_humidity;BME280_pressure;Samples;Min_cycle;Max_cycle;Signal;HPM_P1;HPM_P2
2023/06/17 00:01:33;;;;;;;4.28;2.20;;;25.50;1.00;;;;;;4840814;29;20046;-49
2023/06/17 00:04:02;;;;;;;2.85;1.85;;;25.50;1.00;;;;;;4841403;29;20054;-50
2023/06/17 00:06:29;;;;;;;2.63;1.80;;;25.50;1.00;;;;;;4841663;29;20106;-50
2023/06/17 00:08:57;;;;;;;3.22;2.10;;;25.50;1.00;;;;;;4841522;29;20064;-49
2023/06/17 00:11:24;;;;;;;4.15;2.00;;;25.50;1.00;;;;;;4840845;29;20057;-59
2023/06/17 00:13:52;;;;;;;3.22;1.75;;;25.40;1.00;;;;;;4840338;29;20102;-50
2023/06/17 00:16:20;;;;;;;6.55;2.08;;;25.40;1.00;;;;;;4840480;29;20384;-46
2023/06/17 00:18:47;;;;;;;4.15;2.13;;;25.40;1.00;;;;;;4841439;29;20144;-44
2023/06/17 00:21:14;;;;;;;2.65;1.85;;;25.40;1.00;;;;;;4840986;29;20056;-50
2023/06/17 00:23:41;;;;;;;2.65;2.00;;;25.40;1.00;;;;;;4841482;29;20053;-44
2023/06/17 00:26:08;;;;;;;2.97;1.98;;;25.40;1.00;;;;;;4843460;29;20102;-45
2023/06/17 00:28:35;;;;;;;3.63;2.20;;;25.40;1.00;;;;;;4846708;29;20065;-50
2023/06/17 00:31:02;;;;;;;2.47;1.58;;;25.40;1.00;;;;;;4837899;29;20141;-50
2023/06/17 00:33:29;;;;;;;2.40;1.80;;;25.40;1.00;;;;;;4839547;29;20495;-47
2023/06/17 00:35:56;;;;;;;2.92;1.77;;;25.40;1.00;;;;;;4824886;29;20042;-50
2023/06/17 00:38:22;;;;;;;2.85;1.70;;;25.40;1.00;;;;;;4841021;29;20099;-50
2023/06/17 00:40:50;;;;;;;3.03;1.77;;;25.40;1.00;;;;;;4841362;29;20050;-48
2023/06/17 00:43:17;;;;;;;3.65;2.00;;;25.40;1.00;;;;;;4842454;29;20100;-49
2023/06/17 00:45:43;;;;;;;2.35;1.88;;;25.40;1.00;;;;;;4841216;29;20573;-50
2023/06/17 00:48:11;;;;;;;3.00;1.65;;;25.40;1.00;;;;;;4840932;29;20057;-49
2023/06/17 00:50:38;;;;;;;2.03;1.60;;;25.40;1.00;;;;;;4841324;29;20042;-50
2023/06/17 00:53:06;;;;;;;2.47;1.38;;;25.40;1.00;;;;;;4839429;29;20050;-50
2023/06/17 00:55:34;;;;;;;4.53;2.33;;;25.40;1.00;;;;;;4841023;29;20052;-48
2023/06/17 00:58:01;;;;;;;3.20;1.98;;;25.30;1.00;;;;;;4839657;29;20654;-50
2023/06/17 01:00:28;;;;;;;3.78;2.47;;;25.40;1.00;;;;;;4839669;29;20050;-50
2023/06/17 01:02:56;;;;;;;3.85;1.90;;;25.30;1.00;;;;;;4839481;29;20309;-50
2023/06/17 01:05:24;;;;;;;4.30;1.73;;;25.30;1.00;;;;;;4840887;29;20063;-47
2023/06/17 01:08:00;;;;;;;2.90;2.08;;;25.30;1.00;;;;;;4840859;29;20570;-50
2023/06/17 01:10:48;;;;;;;2.92;1.92;;;25.30;1.00;;;;;;4839593;29;20077;-50
2023/06/17 01:13:16;;;;;;;3.00;1.77;;;25.30;1.00;;;;;;4840100;29;20513;-50
2023/06/17 01:15:45;;;;;;;3.20;1.75;;;25.30;1.00;;;;;;4839420;29;20121;-50
2023/06/17 01:18:17;;;;;;;4.47;1.58;;;25.30;1.00;;;;;;4839352;29;20577;-49
2023/06/17 01:20:47;;;;;;;3.53;2.05;;;25.30;1.00;;;;;;4839861;29;20480;-48
2023/06/17 01:23:15;;;;;;;2.65;1.52;;;25.20;1.00;;;;;;4839256;29;20046;-50
2023/06/17 01:25:42;;;;;;;2.67;1.85;;;25.20;1.00;;;;;;4840789;29;20065;-49
2023/06/17 01:28:16;;;;;;;4.60;2.20;;;25.20;1.00;;;;;;4840687;29;20050;-50
2023/06/17 01:30:44;;;;;;;2.22;1.58;;;25.20;1.00;;;;;;4840747;29;20058;-50
2023/06/17 01:33:13;;;;;;;1.77;1.42;;;25.20;1.00;;;;;;4840324;29;20050;-46
2023/06/17 01:36:03;;;;;;;2.28;1.77;;;25.30;1.00;;;;;;4841156;29;20046;-49
2023/06/17 01:38:41;;;;;;;2.22;1.65;;;25.20;1.00;;;;;;4840157;29;20049;-47
2023/06/17 01:41:16;;;;;;;1.90;1.50;;;25.20;1.00;;;;;;4839233;29;20050;-49
2023/06/17 01:43:44;;;;;;;2.80;1.75;;;25.20;1.00;;;;;;4839367;29;20050;-49
2023/06/17 01:46:14;;;;;;;4.28;1.98;;;25.20;1.00;;;;;;4838690;29;20106;-48
2023/06/17 01:48:42;;;;;;;3.05;1.95;;;25.20;1.00;;;;;;4843877;29;20129;-47
2023/06/17 01:51:09;;;;;;;3.60;1.83;;;25.20;1.00;;;;;;4842246;29;20137;-48
2023/06/17 01:53:36;;;;;;;2.67;1.67;;;25.20;1.00;;;;;;4842436;29;20049;-45
2023/06/17 01:56:03;;;;;;;2.70;1.73;;;25.20;1.00;;;;;;4842479;29;20079;-49
2023/06/17 01:58:30;;;;;;;4.30;1.95;;;25.20;1.00;;;;;;4842615;29;20053;-46
2023/06/17 02:00:57;;;;;;;6.18;2.15;;;25.10;1.00;;;;;;4842123;29;20094;-49
2023/06/17 02:03:24;;;;;;;3.78;2.28;;;25.10;1.00;;;;;;4843485;29;20042;-48
2023/06/17 02:05:51;;;;;;;2.28;1.40;;;25.10;1.00;;;;;;4842393;29;20440;-50
2023/06/17 02:08:18;;;;;;;4.55;2.10;;;25.10;1.00;;;;;;4843376;29;20072;-50
2023/06/17 02:10:45;;;;;;;3.97;2.47;;;25.10;1.00;;;;;;4843487;29;20052;-46
2023/06/17 02:13:12;;;;;;;3.65;1.67;;;25.10;1.00;;;;;;4843043;29;20462;-49
2023/06/17 02:15:42;;;;;;;2.88;1.50;;;25.10;1.00;;;;;;4842160;29;20144;-46
2023/06/17 02:18:12;;;;;;;2.42;1.90;;;25.10;1.00;;;;;;4842027;29;20529;-48
2023/06/17 02:20:39;;;;;;;2.42;1.88;;;25.10;1.00;;;;;;4843116;29;20503;-49
2023/06/17 02:23:07;;;;;;;2.70;1.42;;;25.10;1.00;;;;;;4842937;29;20042;-49
2023/06/17 02:25:36;;;;;;;2.25;1.80;;;25.10;1.00;;;;;;4843176;29;20045;-48
2023/06/17 02:28:03;;;;;;;1.90;1.38;;;25.10;1.00;;;;;;4843025;29;20056;-50
2023/06/17 02:30:30;;;;;;;2.95;1.60;;;25.10;1.00;;;;;;4842975;29;20451;-50
2023/06/17 02:32:57;;;;;;;3.10;1.90;;;25.10;1.00;;;;;;4842883;29;20053;-46
2023/06/17 02:35:24;;;;;;;3.10;1.77;;;25.10;1.00;;;;;;4841639;29;20487;-46
2023/06/17 02:37:53;;;;;;;4.20;2.53;;;25.00;1.00;;;;;;4841734;29;20045;-48
2023/06/17 02:40:21;;;;;;;3.75;1.75;;;25.00;1.00;;;;;;4841419;29;20116;-49
2023/06/17 02:42:50;;;;;;;4.38;2.58;;;25.00;1.00;;;;;;4841329;29;20050;-50
2023/06/17 02:45:17;;;;;;;4.25;1.80;;;25.00;1.00;;;;;;4841413;29;20050;-49
2023/06/17 02:47:45;;;;;;;3.08;1.83;;;25.00;1.00;;;;;;4841668;29;20049;-50
2023/06/17 02:50:12;;;;;;;2.75;2.15;;;25.00;1.00;;;;;;4841190;29;20141;-50
2023/06/17 02:52:40;;;;;;;5.10;2.10;;;25.00;1.00;;;;;;4826081;29;20054;-49
2023/06/17 02:55:07;;;;;;;2.30;1.90;;;25.00;1.00;;;;;;4841127;29;20122;-49
2023/06/17 02:57:35;;;;;;;2.90;1.98;;;25.00;1.00;;;;;;4840635;29;20052;-48
2023/06/17 03:00:06;;;;;;;3.38;1.88;;;25.00;1.00;;;;;;4840925;29;20455;-49
2023/06/17 03:02:33;;;;;;;3.55;1.73;;;24.90;1.00;;;;;;4842274;29;20038;-46
2023/06/17 03:04:59;;;;;;;3.97;1.70;;;24.90;1.00;;;;;;4842390;29;20038;-50
2023/06/17 03:07:26;;;;;;;2.03;1.65;;;24.90;1.00;;;;;;4842384;29;20074;-50
2023/06/17 03:09:53;;;;;;;3.38;1.88;;;24.90;1.00;;;;;;4840804;29;20046;-46
2023/06/17 03:12:20;;;;;;;2.83;1.83;;;24.90;1.00;;;;;;4839435;29;20061;-47
2023/06/17 03:14:47;;;;;;;2.22;1.80;;;24.90;1.00;;;;;;4839546;29;20038;-53
2023/06/17 03:17:16;;;;;;;3.92;2.75;;;24.90;1.00;;;;;;4840716;29;20042;-50
2023/06/17 03:19:44;;;;;;;2.35;1.75;;;24.90;1.00;;;;;;4840359;29;20514;-50
2023/06/17 03:22:11;;;;;;;4.05;2.35;;;24.90;1.00;;;;;;4840846;29;20057;-46
2023/06/17 03:24:43;;;;;;;3.95;2.55;;;24.90;1.00;;;;;;4840714;29;20098;-50
2023/06/17 03:27:10;;;;;;;2.65;2.03;;;24.90;1.00;;;;;;4840861;29;20050;-47
2023/06/17 03:29:37;;;;;;;2.13;1.58;;;24.90;1.00;;;;;;4840947;29;20053;-47
2023/06/17 03:32:05;;;;;;;3.40;1.88;;;24.80;1.00;;;;;;4840449;29;20049;-46
2023/06/17 03:34:33;;;;;;;4.68;2.15;;;24.80;1.00;;;;;;4840623;29;20045;-43
2023/06/17 03:37:05;;;;;;;4.30;1.90;;;24.80;1.00;;;;;;4840572;29;20507;-45
2023/06/17 03:39:32;;;;;;;3.75;2.20;;;24.80;1.00;;;;;;4840620;29;20052;-47
2023/06/17 03:41:59;;;;;;;3.53;2.13;;;24.80;1.00;;;;;;4841501;29;20506;-44
2023/06/17 03:44:26;;;;;;;2.03;1.65;;;24.80;1.00;;;;;;4840677;29;20046;-44
2023/06/17 03:46:56;;;;;;;3.88;2.08;;;24.80;1.00;;;;;;4840858;29;20050;-44
2023/06/17 03:49:23;;;;;;;2.83;1.65;;;24.80;1.00;;;;;;4839802;29;20041;-44
2023/06/17 03:51:50;;;;;;;3.28;1.83;;;24.80;1.00;;;;;;4839818;29;20114;-47
2023/06/17 03:54:17;;;;;;;4.25;2.25;;;24.80;1.00;;;;;;4841434;29;20042;-49
2023/06/17 03:56:44;;;;;;;4.20;2.40;;;24.80;1.00;;;;;;4842591;29;20046;-50
2023/06/17 03:59:11;;;;;;;4.00;1.88;;;24.80;1.00;;;;;;4841742;29;20214;-46
2023/06/17 04:01:38;;;;;;;1.88;1.67;;;24.80;1.00;;;;;;4840069;29;20503;-49
2023/06/17 04:04:05;;;;;;;2.60;1.75;;;24.80;1.00;;;;;;4840178;29;20502;-50
2023/06/17 04:06:32;;;;;;;3.05;2.08;;;24.80;1.00;;;;;;4841263;29;20090;-50
2023/06/17 04:08:59;;;;;;;5.72;2.80;;;24.70;1.00;;;;;;4841066;29;20448;-50
2023/06/17 04:11:26;;;;;;;3.05;2.38;;;24.70;1.00;;;;;;4839458;29;20049;-49
2023/06/17 04:13:53;;;;;;;2.15;1.65;;;24.80;1.00;;;;;;4841251;29;20038;-48
2023/06/17 04:16:21;;;;;;;2.58;2.08;;;24.70;1.00;;;;;;4841052;29;20045;-50
2023/06/17 04:18:48;;;;;;;2.13;1.77;;;24.70;1.00;;;;;;4839227;29;20104;-47
2023/06/17 04:21:15;;;;;;;2.30;1.67;;;24.70;1.00;;;;;;4839188;29;20110;-48
2023/06/17 04:23:42;;;;;;;3.35;1.77;;;24.70;1.00;;;;;;4839847;29;20096;-47
2023/06/17 04:26:12;;;;;;;3.63;1.60;;;24.70;1.00;;;;;;4839642;29;20056;-49
2023/06/17 04:28:40;;;;;;;2.47;1.83;;;24.70;1.00;;;;;;4839707;29;20069;-46
2023/06/17 04:31:10;;;;;;;3.03;1.80;;;24.70;1.00;;;;;;4840621;29;20057;-49
2023/06/17 04:33:40;;;;;;;2.22;1.73;;;24.70;1.00;;;;;;4839664;29;20050;-45
2023/06/17 04:36:08;;;;;;;3.50;1.98;;;24.70;1.00;;;;;;4839644;29;20042;-50
2023/06/17 04:38:39;;;;;;;4.18;2.03;;;24.60;1.00;;;;;;4839637;29;20053;-50
2023/06/17 04:41:06;;;;;;;2.28;1.77;;;24.60;1.00;;;;;;4854676;29;20392;-49
2023/06/17 04:43:36;;;;;;;2.78;1.98;;;24.60;1.00;;;;;;4839394;29;20042;-50
2023/06/17 04:46:06;;;;;;;2.20;1.77;;;24.60;1.00;;;;;;4839568;29;20046;-48
2023/06/17 04:48:33;;;;;;;3.75;2.25;;;24.60;1.00;;;;;;4840896;29;20546;-48
2023/06/17 04:51:00;;;;;;;3.72;2.08;;;24.60;1.00;;;;;;4839232;29;20125;-50
2023/06/17 04:53:27;;;;;;;2.90;1.95;;;24.60;1.00;;;;;;4839285;29;20060;-49
2023/06/17 04:55:54;;;;;;;1.90;1.63;;;24.60;1.00;;;;;;4839492;29;20050;-45
2023/06/17 04:58:21;;;;;;;2.75;2.08;;;24.60;1.00;;;;;;4839542;29;20122;-50
2023/06/17 05:00:58;;;;;;;5.68;2.38;;;24.60;1.00;;;;;;4839361;29;20050;-50
2023/06/17 05:03:29;;;;;;;6.85;2.58;;;24.60;1.00;;;;;;4839076;29;20058;-50
2023/06/17 05:05:56;;;;;;;4.65;2.38;;;24.60;1.00;;;;;;4839415;29;20079;-50
2023/06/17 05:08:27;;;;;;;2.60;1.88;;;24.60;1.00;;;;;;4839488;29;20106;-47
2023/06/17 05:10:56;;;;;;;3.83;2.10;;;24.60;1.00;;;;;;4839228;29;20058;-50
2023/06/17 05:13:23;;;;;;;3.30;2.25;;;24.60;1.00;;;;;;4839185;29;20046;-50
2023/06/17 05:15:52;;;;;;;3.22;2.10;;;24.60;1.00;;;;;;4839192;29;20070;-50
2023/06/17 05:18:20;;;;;;;3.80;2.10;;;24.60;1.00;;;;;;4839515;29;20042;-50
2023/06/17 05:20:47;;;;;;;3.30;1.95;;;24.60;1.00;;;;;;4838725;29;20574;-49
2023/06/17 05:23:14;;;;;;;3.03;2.00;;;24.60;1.00;;;;;;4842363;29;20578;-47
2023/06/17 05:25:42;;;;;;;2.05;1.55;;;24.60;1.00;;;;;;4842716;29;20053;-50
2023/06/17 05:28:10;;;;;;;11.25;2.05;;;24.50;1.00;;;;;;4842667;29;20046;-50
2023/06/17 05:30:39;;;;;;;4.30;2.55;;;24.50;1.00;;;;;;4840214;29;20050;-50
2023/06/17 05:33:07;;;;;;;6.97;3.00;;;24.60;1.00;;;;;;4846287;29;20046;-49
2023/06/17 05:35:34;;;;;;;3.65;2.75;;;24.50;1.00;;;;;;4834467;29;20037;-50
2023/06/17 05:38:01;;;;;;;9.30;3.60;;;24.50;1.00;;;;;;4842701;29;20320;-47
2023/06/17 05:40:28;;;;;;;6.88;2.78;;;24.50;1.00;;;;;;4840627;29;20050;-47
2023/06/17 05:42:55;;;;;;;8.07;3.17;;;24.40;1.00;;;;;;4842297;29;20098;-49
2023/06/17 05:45:22;;;;;;;14.73;4.00;;;24.40;1.00;;;;;;4842292;29;20096;-49
2023/06/17 05:47:49;;;;;;;8.25;3.28;;;24.40;1.00;;;;;;4842483;29;20136;-51
2023/06/17 05:50:16;;;;;;;6.40;2.80;;;24.40;1.00;;;;;;4837004;29;20064;-50
2023/06/17 05:52:45;;;;;;;4.10;2.85;;;24.40;1.00;;;;;;4840805;29;20047;-49
2023/06/17 05:55:12;;;;;;;5.60;2.70;;;24.40;1.00;;;;;;4841478;29;20133;-44
2023/06/17 05:57:39;;;;;;;5.28;2.80;;;24.40;1.00;;;;;;4837669;29;20413;-50
2023/06/17 06:00:08;;;;;;;6.00;2.65;;;24.40;1.00;;;;;;4839026;29;20046;-49
2023/06/17 06:02:42;;;;;;;6.47;3.30;;;24.40;1.00;;;;;;4836271;29;20061;-51
2023/06/17 06:05:10;;;;;;;5.53;3.03;;;24.40;1.00;;;;;;4841423;29;20132;-50
2023/06/17 06:07:46;;;;;;;6.88;3.05;;;24.30;1.00;;;;;;4843343;29;20098;-50
2023/06/17 06:10:15;;;;;;;8.20;3.15;;;24.30;1.00;;;;;;4824854;29;20064;-51
2023/06/17 06:12:46;;;;;;;10.38;3.38;;;24.30;1.00;;;;;;4841726;29;20069;-50
2023/06/17 06:15:14;;;;;;;6.75;3.30;;;24.30;1.00;;;;;;4841624;29;20069;-50
2023/06/17 06:17:41;;;;;;;8.85;2.90;;;24.30;1.00;;;;;;4841945;29;20102;-50
2023/06/17 06:20:08;;;;;;;7.40;3.03;;;24.30;1.00;;;;;;4826537;29;20046;-51
2023/06/17 06:22:35;;;;;;;5.75;3.13;;;24.30;1.00;;;;;;4841530;29;20068;-44
2023/06/17 06:25:02;;;;;;;4.43;2.92;;;24.30;1.00;;;;;;4841888;29;20054;-46
2023/06/17 06:27:31;;;;;;;5.25;2.78;;;24.40;1.00;;;;;;4841576;29;20153;-46
2023/06/17 06:29:58;;;;;;;5.05;3.00;;;24.30;1.00;;;;;;4849171;29;20406;-47
2023/06/17 06:32:25;;;;;;;4.95;2.25;;;24.30;1.00;;;;;;4856320;29;20419;-47
2023/06/17 06:34:55;;;;;;;9.60;3.33;;;24.30;1.00;;;;;;4841578;29;20048;-49
2023/06/17 06:37:22;;;;;;;5.88;3.33;;;24.30;1.00;;;;;;4852079;29;20585;-49
2023/06/17 06:39:50;;;;;;;9.90;3.17;;;24.30;1.00;;;;;;4849136;29;20053;-50
2023/06/17 06:42:17;;;;;;;7.85;3.45;;;24.30;1.00;;;;;;4839311;29;20049;-50
2023/06/17 06:44:55;;;;;;;12.73;3.22;;;24.30;1.00;;;;;;4841313;29;20121;-51
2023/06/17 06:47:22;;;;;;;4.88;2.63;;;24.30;1.00;;;;;;4842424;29;20541;-50
2023/06/17 06:49:51;;;;;;;4.10;3.30;;;24.20;1.00;;;;;;4841117;29;20054;-50
2023/06/17 06:52:19;;;;;;;14.18;3.63;;;24.20;1.00;;;;;;4840888;29;20114;-50
2023/06/17 06:54:46;;;;;;;7.47;2.55;;;24.20;1.00;;;;;;4840388;29;20065;-51
2023/06/17 06:57:13;;;;;;;5.38;3.10;;;24.20;1.00;;;;;;4842320;29;20086;-47
2023/06/17 06:59:40;;;;;;;16.25;4.20;;;24.20;1.00;;;;;;4836482;29;20042;-50
2023/06/17 07:02:07;;;;;;;10.68;3.55;;;24.20;1.00;;;;;;4835636;29;20459;-50
2023/06/17 07:04:34;;;;;;;6.72;3.70;;;24.20;1.00;;;;;;4835557;29;20058;-44
2023/06/17 07:07:02;;;;;;;14.32;2.95;;;24.20;1.00;;;;;;4845331;29;20511;-51
2023/06/17 07:09:33;;;;;;;6.45;2.83;;;24.20;1.00;;;;;;4838672;29;20173;-50
2023/06/17 07:12:00;;;;;;;8.32;3.50;;;24.20;1.00;;;;;;4839274;29;20153;-51
2023/06/17 07:14:29;;;;;;;11.18;2.90;;;24.20;1.00;;;;;;4840043;29;20045;-51
2023/06/17 07:16:57;;;;;;;5.07;2.25;;;24.20;1.00;;;;;;4839614;29;20038;-50
2023/06/17 07:19:25;;;;;;;5.57;2.70;;;24.30;1.00;;;;;;4840642;29;20042;-50
2023/06/17 07:21:52;;;;;;;8.30;3.17;;;24.30;1.00;;;;;;4840239;29;20081;-59
2023/06/17 07:24:20;;;;;;;4.85;2.65;;;24.30;1.00;;;;;;4840662;29;20049;-49
2023/06/17 07:26:47;;;;;;;9.32;2.55;;;24.30;1.00;;;;;;4840596;29;20118;-51
2023/06/17 07:29:14;;;;;;;5.82;3.10;;;24.40;1.00;;;;;;4840549;29;20065;-48
2023/06/17 07:31:41;;;;;;;17.42;3.10;;;24.40;1.00;;;;;;4832927;29;20046;-49
2023/06/17 07:34:08;;;;;;;4.65;3.03;;;24.40;1.00;;;;;;4840621;29;20094;-46
2023/06/17 07:36:34;;;;;;;8.43;2.85;;;24.40;1.00;;;;;;4840502;29;20082;-46
2023/06/17 07:39:03;;;;;;;4.90;2.78;;;24.40;1.00;;;;;;4840600;29;20062;-48
2023/06/17 07:41:29;;;;;;;5.68;2.90;;;24.40;1.00;;;;;;4841167;29;20057;-51
2023/06/17 07:43:56;;;;;;;3.45;2.08;;;24.40;1.00;;;;;;4841190;29;20042;-47
2023/06/17 07:46:23;;;;;;;4.45;2.50;;;24.40;1.00;;;;;;4841435;29;20054;-51
2023/06/17 07:48:50;;;;;;;4.53;2.95;;;24.40;1.00;;;;;;4841638;29;20053;-51
2023/06/17 07:51:16;;;;;;;4.07;2.33;;;24.40;1.00;;;;;;4840984;29;20132;-48
2023/06/17 07:53:43;;;;;;;4.13;3.13;;;24.50;1.00;;;;;;4841489;29;20120;-50
2023/06/17 07:56:10;;;;;;;4.70;2.42;;;24.50;1.00;;;;;;4841396;29;20066;-45
2023/06/17 07:58:37;;;;;;;2.75;2.30;;;24.50;1.00;;;;;;4841453;29;20052;-47
2023/06/17 08:01:04;;;;;;;3.75;2.30;;;24.50;1.00;;;;;;4841404;29;20053;-46
2023/06/17 08:03:30;;;;;;;3.03;2.30;;;24.50;1.00;;;;;;4841441;29;20046;-45
2023/06/17 08:05:57;;;;;;;4.47;2.60;;;24.50;1.00;;;;;;4841689;29;20071;-47
2023/06/17 08:08:24;;;;;;;2.63;2.30;;;24.50;1.00;;;;;;4841569;29;20049;-48
2023/06/17 08:10:51;;;;;;;6.90;3.45;;;24.50;1.00;;;;;;4841234;29;20045;-51
2023/06/17 08:13:18;;;;;;;5.90;2.58;;;24.50;1.00;;;;;;4841636;29;20499;-48
2023/06/17 08:15:45;;;;;;;4.72;2.95;;;24.50;1.00;;;;;;4841213;29;20037;-51
2023/06/17 08:18:12;;;;;;;3.28;2.25;;;24.60;1.00;;;;;;4840144;29;20049;-50
2023/06/17 08:20:39;;;;;;;3.65;2.45;;;24.60;1.00;;;;;;4841111;29;20135;-51
2023/06/17 08:23:07;;;;;;;2.78;2.30;;;24.60;1.00;;;;;;4841132;29;20399;-50
2023/06/17 08:25:34;;;;;;;5.75;2.58;;;24.60;1.00;;;;;;4839700;29;20053;-51
2023/06/17 08:28:01;;;;;;;3.67;2.33;;;24.60;1.00;;;;;;4841198;29;20052;-51
2023/06/17 08:30:27;;;;;;;4.07;3.17;;;24.60;1.00;;;;;;4840801;29;20056;-49
2023/06/17 08:32:54;;;;;;;3.40;2.35;;;24.60;1.00;;;;;;4840894;29;20053;-49
2023/06/17 08:35:21;;;;;;;6.32;2.75;;;24.60;1.00;;;;;;4840921;29;20050;-49
2023/06/17 08:37:48;;;;;;;4.88;2.20;;;24.60;1.00;;;;;;4841069;29;20049;-46
2023/06/17 08:40:18;;;;;;;3.38;2.50;;;24.60;1.00;;;;;;4841042;29;20057;-46
2023/06/17 08:42:46;;;;;;;4.18;1.95;;;24.60;1.00;;;;;;4840896;29;20046;-46
2023/06/17 08:45:13;;;;;;;4.65;2.20;;;24.60;1.00;;;;;;4840880;29;20054;-45
2023/06/17 08:47:42;;;;;;;4.00;2.38;;;24.60;1.00;;;;;;4840835;29;20521;-49
2023/06/17 08:50:10;;;;;;;4.65;2.45;;;24.60;1.00;;;;;;4840540;29;20525;-45
2023/06/17 08:52:38;;;;;;;4.97;2.88;;;24.60;1.00;;;;;;4840566;29;20220;-51
2023/06/17 08:55:06;;;;;;;4.45;2.63;;;24.60;1.00;;;;;;4841161;29;20133;-48
2023/06/17 08:57:33;;;;;;;3.33;2.42;;;24.60;1.00;;;;;;4843188;29;20050;-49
2023/06/17 09:00:00;;;;;;;2.63;2.00;;;24.60;1.00;;;;;;4844379;29;20061;-48
2023/06/17 09:02:29;;;;;;;5.07;2.33;;;24.60;1.00;;;;;;4844214;29;20046;-51
2023/06/17 09:04:57;;;;;;;4.85;2.33;;;24.60;1.00;;;;;;4844492;29;20069;-51
2023/06/17 09:07:24;;;;;;;3.33;2.05;;;24.60;1.00;;;;;;4844265;29;20060;-49
2023/06/17 09:09:54;;;;;;;4.82;2.75;;;24.60;1.00;;;;;;4844325;29;20091;-51
2023/06/17 09:12:24;;;;;;;4.95;2.50;;;24.70;1.00;;;;;;4843918;29;20483;-50
2023/06/17 09:14:54;;;;;;;3.88;2.90;;;24.70;1.00;;;;;;4844195;29;20073;-51
2023/06/17 09:17:32;;;;;;;4.95;2.42;;;24.60;1.00;;;;;;4844095;29;20046;-49
2023/06/17 09:20:10;;;;;;;4.35;2.58;;;24.70;1.00;;;;;;4844145;29;20417;-50
2023/06/17 09:22:45;;;;;;;3.58;2.13;;;24.70;1.00;;;;;;4843764;29;20044;-48
2023/06/17 09:25:14;;;;;;;4.70;2.83;;;24.70;1.00;;;;;;4844231;29;20555;-50
2023/06/17 09:27:59;;;;;;;5.68;2.05;;;24.70;1.00;;;;;;4844203;29;20096;-51
2023/06/17 09:30:43;;;;;;;3.30;2.38;;;24.70;1.00;;;;;;4843815;29;20050;-48
2023/06/17 09:33:20;;;;;;;2.60;1.90;;;24.70;1.00;;;;;;4843983;29;20058;-50
2023/06/17 09:35:57;;;;;;;2.90;1.90;;;24.70;1.00;;;;;;4836636;29;20057;-45
2023/06/17 09:38:24;;;;;;;4.72;2.40;;;24.70;1.00;;;;;;4844213;29;20520;-49
2023/06/17 09:40:51;;;;;;;2.72;2.17;;;24.70;1.00;;;;;;4843820;29;20042;-45
2023/06/17 09:43:19;;;;;;;6.57;2.42;;;24.70;1.00;;;;;;4843794;29;20050;-50
2023/06/17 09:46:01;;;;;;;4.30;2.53;;;24.70;1.00;;;;;;4843840;29;20470;-51
2023/06/17 09:48:32;;;;;;;4.32;2.40;;;24.70;1.00;;;;;;4843813;29;20069;-50
2023/06/17 09:51:00;;;;;;;2.97;2.45;;;24.70;1.00;;;;;;4843374;29;20460;-50
2023/06/17 09:53:29;;;;;;;2.53;1.85;;;24.70;1.00;;;;;;4841904;29;20064;-49
2023/06/17 09:55:57;;;;;;;3.75;2.40;;;24.70;1.00;;;;;;4843391;29;20069;-51
2023/06/17 09:58:35;;;;;;;3.35;2.55;;;24.70;1.00;;;;;;4843298;29;20046;-51
2023/06/17 10:01:06;;;;;;;3.97;2.58;;;24.70;1.00;;;;;;4843243;29;20388;-50
2023/06/17 10:03:33;;;;;;;2.95;2.40;;;24.70;1.00;;;;;;4843353;29;20080;-51
2023/06/17 10:06:08;;;;;;;3.10;2.35;;;24.70;1.00;;;;;;4843460;29;20050;-49
2023/06/17 10:08:42;;;;;;;6.32;2.20;;;24.70;1.00;;;;;;4842745;29;20050;-51
2023/06/17 10:11:13;;;;;;;4.88;2.15;;;24.70;1.00;;;;;;4841898;29;20046;-49
2023/06/17 10:13:41;;;;;;;3.90;2.30;;;24.70;1.00;;;;;;4843306;29;20443;-51
2023/06/17 10:16:12;;;;;;;4.30;2.33;;;24.70;1.00;;;;;;4843126;29;20042;-51
2023/06/17 10:18:40;;;;;;;4.90;2.65;;;24.70;1.00;;;;;;4843181;29;20045;-51
2023/06/17 10:21:10;;;;;;;5.03;2.65;;;24.70;1.00;;;;;;4843161;29;20419;-51
2023/06/17 10:23:38;;;;;;;4.90;2.25;;;24.70;1.00;;;;;;4843062;29;20084;-51
2023/06/17 10:26:06;;;;;;;4.65;2.28;;;24.80;1.00;;;;;;4843187;29;20495;-47
2023/06/17 10:28:51;;;;;;;3.53;2.20;;;24.70;1.00;;;;;;4842944;29;20081;-58
2023/06/17 10:31:30;;;;;;;3.85;2.83;;;24.70;1.00;;;;;;4842604;29;20050;-49
2023/06/17 10:34:01;;;;;;;5.50;2.10;;;24.70;1.00;;;;;;4843087;29;20046;-48
2023/06/17 10:36:28;;;;;;;3.85;2.55;;;24.70;1.00;;;;;;4842723;29;20102;-49
2023/06/17 10:39:07;;;;;;;4.65;2.47;;;24.70;1.00;;;;;;4842852;29;20050;-48
2023/06/17 10:41:45;;;;;;;3.75;2.25;;;24.70;1.00;;;;;;4880561;23;20088;-49
2023/06/17 10:44:34;;;;;;;3.00;2.42;;;24.70;1.00;;;;;;4879919;29;20124;-50
2023/06/17 10:47:15;;;;;;;6.07;2.80;;;24.70;1.00;;;;;;4879702;29;20041;-47
2023/06/17 10:49:42;;;;;;;4.03;2.45;;;24.70;1.00;;;;;;4879605;29;20045;-51
2023/06/17 10:52:13;;;;;;;4.57;2.45;;;24.70;1.00;;;;;;4879234;29;20037;-51
2023/06/17 10:54:58;;;;;;;3.55;2.10;;;24.70;1.00;;;;;;4879478;29;20055;-50
2023/06/17 10:57:35;;;;;;;2.97;2.17;;;24.80;1.00;;;;;;4879632;29;20216;-50
2023/06/17 11:00:10;;;;;;;3.13;2.20;;;24.70;1.00;;;;;;4879173;29;20065;-51
2023/06/17 11:02:40;;;;;;;3.33;2.63;;;24.70;1.00;;;;;;4879344;29;20041;-48
2023/06/17 11:05:08;;;;;;;4.25;2.35;;;24.70;1.00;;;;;;4879436;29;20052;-46
2023/06/17 11:07:36;;;;;;;4.97;3.13;;;24.80;1.00;;;;;;4879394;29;20577;-45
2023/06/17 11:10:03;;;;;;;8.20;2.35;;;24.70;1.00;;;;;;4879663;29;20128;-48
2023/06/17 11:12:30;;;;;;;3.42;2.10;;;24.70;1.00;;;;;;4879327;29;20045;-46
2023/06/17 11:14:59;;;;;;;3.45;2.15;;;24.70;1.00;;;;;;4879583;29;20076;-44
2023/06/17 11:17:27;;;;;;;4.82;2.47;;;24.70;1.00;;;;;;4879340;29;20041;-45
2023/06/17 11:19:54;;;;;;;4.47;2.47;;;24.70;1.00;;;;;;4878144;29;20053;-46
2023/06/17 11:22:22;;;;;;;2.55;2.03;;;24.70;1.00;;;;;;4879056;29;20424;-49
2023/06/17 11:24:49;;;;;;;3.17;1.92;;;24.70;1.00;;;;;;4879306;29;20040;-47
2023/06/17 11:27:17;;;;;;;4.55;2.30;;;24.70;1.00;;;;;;4879207;29;20079;-46
2023/06/17 11:29:44;;;;;;;2.38;1.92;;;24.70;1.00;;;;;;4879031;29;20060;-51
2023/06/17 11:32:12;;;;;;;2.35;2.00;;;24.70;1.00;;;;;;4878813;29;20052;-46
2023/06/17 11:34:41;;;;;;;3.42;2.17;;;24.70;1.00;;;;;;4879044;29;20056;-44
2023/06/17 11:37:10;;;;;;;2.03;1.80;;;24.70;1.00;;;;;;4879342;29;20067;-46
2023/06/17 11:39:46;;;;;;;4.22;2.92;;;24.70;1.00;;;;;;5109697;27;20377;-43
2023/06/17 11:42:13;;;;;;;3.95;2.60;;;24.70;1.00;;;;;;5068984;28;20036;-48
2023/06/17 11:44:40;;;;;;;3.33;2.60;;;24.70;1.00;;;;;;5068979;28;20116;-44
2023/06/17 11:47:08;;;;;;;4.55;3.10;;;24.70;1.00;;;;;;5069085;28;20475;-44
2023/06/17 11:49:41;;;;;;;3.58;2.40;;;24.70;1.00;;;;;;5067359;28;20056;-43
2023/06/17 11:52:11;;;;;;;2.70;2.28;;;24.70;1.00;;;;;;5068485;28;20044;-46
2023/06/17 11:54:45;;;;;;;2.65;2.33;;;24.70;1.00;;;;;;5068883;28;20484;-46
2023/06/17 11:57:26;;;;;;;5.18;2.50;;;24.70;1.00;;;;;;5068805;28;20098;-49
2023/06/17 12:00:00;;;;;;;3.40;2.10;;;24.70;1.00;;;;;;5068382;28;20102;-50
2023/06/17 12:02:27;;;;;;;3.13;2.13;;;24.70;1.00;;;;;;5068697;28;20040;-46
2023/06/17 12:05:00;;;;;;;4.57;2.20;;;24.70;1.00;;;;;;5068530;28;20112;-48
2023/06/17 12:07:27;;;;;;;;;;;24.70;1.00;;;;;;5067736;28;20139;-46
2023/06/17 12:09:54;;;;;;;2.45;1.80;;;24.70;1.00;;;;;;5068224;28;19927;-46
2023/06/17 12:12:29;;;;;;;2.33;1.95;;;24.70;1.00;;;;;;5068611;28;20033;-51
2023/06/17 12:15:07;;;;;;;4.07;2.22;;;24.70;1.00;;;;;;5059924;28;20563;-51
2023/06/17 12:17:50;;;;;;;4.75;2.05;;;24.60;1.00;;;;;;5067779;28;20483;-49
2023/06/17 12:20:20;;;;;;;3.92;2.50;;;24.70;1.00;;;;;;5067840;28;20090;-48
2023/06/17 12:22:52;;;;;;;2.88;2.42;;;24.70;1.00;;;;;;5067882;28;20049;-52
2023/06/17 12:25:19;;;;;;;3.15;2.10;;;24.70;1.00;;;;;;5068237;28;20120;-51
2023/06/17 12:27:49;;;;;;;3.75;2.67;;;24.70;1.00;;;;;;5068200;28;20044;-49
2023/06/17 12:30:17;;;;;;;2.72;2.13;;;24.70;1.00;;;;;;5067974;28;20040;-48
2023/06/17 12:32:44;;;;;;;3.20;2.10;;;24.60;1.00;;;;;;5067814;28;20052;-58
2023/06/17 12:35:11;;;;;;;3.47;2.25;;;24.70;1.00;;;;;;5067880;28;20036;-48
2023/06/17 12:37:41;;;;;;;3.33;2.65;;;24.60;1.00;;;;;;5067737;28;20080;-49
2023/06/17 12:40:09;;;;;;;3.97;2.40;;;24.60;1.00;;;;;;5067797;28;20041;-47
2023/06/17 12:42:36;;;;;;;3.70;2.25;;;24.60;1.00;;;;;;5067956;28;20132;-48
2023/06/17 12:45:07;;;;;;;4.72;2.58;;;24.60;1.00;;;;;;5068112;28;20037;-47
2023/06/17 12:47:34;;;;;;;4.55;2.00;;;24.60;1.00;;;;;;5067764;28;20048;-44
2023/06/17 12:50:01;;;;;;;3.53;2.55;;;24.60;1.00;;;;;;5060683;28;20045;-47
2023/06/17 12:52:28;;;;;;;3.13;1.95;;;24.70;1.00;;;;;;5054130;28;20492;-48
2023/06/17 12:54:59;;;;;;;3.38;2.40;;;24.60;1.00;;;;;;5054322;28;20060;-50
2023/06/17 12:57:26;;;;;;;2.85;2.17;;;24.60;1.00;;;;;;5054517;28;20392;-50
2023/06/17 12:59:53;;;;;;;3.28;2.40;;;24.60;1.00;;;;;;5054101;28;20048;-50
2023/06/17 13:02:21;;;;;;;2.53;1.98;;;24.70;1.00;;;;;;5052731;28;20033;-48
2023/06/17 13:04:48;;;;;;;4.50;2.47;;;24.60;1.00;;;;;;5054002;28;20037;-59
2023/06/17 13:07:16;;;;;;;2.05;1.65;;;24.60;1.00;;;;;;5054326;28;20421;-49